Crooked Lake, Michigan
Current Conditions -  °F | °C
As of 12:34 AM on Wednesday 22 Oct 2014 (Local Time) from KOZW Reporting Station
Overcast Overcast  
Wind Chill: 36°   Ceiling: 2200
Heat Index: 40°   Visibility: 10mi
Dew Point: 35°   Wind: 6mph
Humidity: 83%   Direction: 350°N
Pressure: 30.23"   Gusts: NA
Location:  42.5333°N, 83.7735°W
Report Text: KOZW 220434Z AUTO 35005KT 10SM OVC022 05/02 A3023 RMK AO2 T00450018
Loading
Personal Weather Stations






























Interactive Weather Map
Tropical Storm Tracking
New forecast layout! Learn more

10-Day Weather Forecast

Advertisements
Track Severe Weather on mobile